Time,TemperatureF,DewpointF,PressureIn,WindDirection,WindDirectionDegrees,WindSpeedMPH,WindSpeedGustMPH,Humidity,HourlyPrecipIn,Conditions,Clouds,dailyrainin,SolarRadiationWatts/m^2,SoftwareType,DateUTC
2013-08-16 00:04:00,59.0,53.0,30.10,WNW,301,0.0,-999.0,80,-99.99,,,0.00,0,weatherlink.com 1.10,2013-08-16 04:04:00,
2013-08-16 00:19:00,59.3,53.0,30.11,WNW,300,0.0,-999.0,79,-99.99,,,0.00,0,weatherlink.com 1.10,2013-08-16 04:19:00,
2013-08-16 00:34:00,59.1,53.0,30.10,WNW,300,2.0,-999.0,80,-99.99,,,0.00,0,weatherlink.com 1.10,2013-08-16 04:34:00,
2013-08-16 00:49:00,58.9,53.0,30.10,WNW,300,0.0,-999.0,80,-99.99,,,0.00,0,weatherlink.com 1.10,2013-08-16 04:49:00,
2013-08-16 01:04:00,58.7,53.0,30.10,WNW,300,0.0,-999.0,81,-99.99,,,0.00,0,weatherlink.com 1.10,2013-08-16 05:04:00,
2013-08-16 01:34:00,58.3,53.0,30.09,WNW,300,1.0,-999.0,82,-99.99,,,0.00,0,weatherlink.com 1.10,2013-08-16 05:34:00,
2013-08-16 01:49:00,58.1,53.0,30.09,WNW,300,0.0,-999.0,83,-99.99,,,0.00,0,weatherlink.com 1.10,2013-08-16 05:49:00,
2013-08-16 02:04:00,57.7,53.0,30.09,WNW,300,0.0,-999.0,83,-99.99,,,0.00,0,weatherlink.com 1.10,2013-08-16 06:04:00,
2013-08-16 02:19:00,57.6,53.0,30.09,WNW,300,0.0,-999.0,84,-99.99,,,0.00,0,weatherlink.com 1.10,2013-08-16 06:19:00,
2013-08-16 02:34:00,57.7,53.0,30.09,WNW,300,0.0,-999.0,84,-99.99,,,0.00,0,weatherlink.com 1.10,2013-08-16 06:34:00,
2013-08-16 02:49:00,57.8,53.0,30.09,WNW,298,0.0,-999.0,83,-99.99,,,0.00,0,weatherlink.com 1.10,2013-08-16 06:49:00,
2013-08-16 03:04:00,57.8,53.0,30.09,WNW,298,1.0,-999.0,83,-99.99,,,0.00,0,weatherlink.com 1.10,2013-08-16 07:04:00,
2013-08-16 03:19:00,57.6,53.0,30.09,WNW,298,1.0,-999.0,84,-99.99,,,0.00,0,weatherlink.com 1.10,2013-08-16 07:19:00,
2013-08-16 03:34:00,57.2,53.0,30.09,WNW,298,0.0,-999.0,85,-99.99,,,0.00,0,weatherlink.com 1.10,2013-08-16 07:34:00,
2013-08-16 03:49:00,57.0,53.0,30.09,WNW,298,0.0,-999.0,85,-99.99,,,0.00,0,weatherlink.com 1.10,2013-08-16 07:49:00,
2013-08-16 04:04:00,57.0,53.0,30.09,WNW,298,0.0,-999.0,86,-99.99,,,0.00,0,weatherlink.com 1.10,2013-08-16 08:04:00,
2013-08-16 04:19:00,56.9,53.0,30.09,WNW,298,0.0,-999.0,86,-99.99,,,0.00,0,weatherlink.com 1.10,2013-08-16 08:19:00,
2013-08-16 04:34:00,56.5,52.0,30.09,WNW,298,0.0,-999.0,86,-99.99,,,0.00,0,weatherlink.com 1.10,2013-08-16 08:34:00,
2013-08-16 04:49:00,56.0,52.0,30.10,WNW,298,0.0,-999.0,87,-99.99,,,0.00,0,weatherlink.com 1.10,2013-08-16 08:49:00,
2013-08-16 05:04:00,55.5,52.0,30.10,WNW,298,0.0,-999.0,88,-99.99,,,0.00,0,weatherlink.com 1.10,2013-08-16 09:04:00,
2013-08-16 05:19:00,55.2,52.0,30.10,WNW,298,0.0,-999.0,89,-99.99,,,0.00,0,weatherlink.com 1.10,2013-08-16 09:19:00,
2013-08-16 05:34:00,55.1,52.0,30.11,WNW,298,0.0,-999.0,89,-99.99,,,0.00,0,weatherlink.com 1.10,2013-08-16 09:34:00,
2013-08-16 05:49:00,54.6,52.0,30.11,WNW,298,0.0,-999.0,89,-99.99,,,0.00,0,weatherlink.com 1.10,2013-08-16 09:49:00,
2013-08-16 06:04:00,54.2,51.0,30.11,WNW,298,0.0,-999.0,90,-99.99,,,0.00,0,weatherlink.com 1.10,2013-08-16 10:04:00,
2013-08-16 06:19:00,53.9,51.0,30.12,WNW,298,0.0,-999.0,90,-99.99,,,0.00,0,weatherlink.com 1.10,2013-08-16 10:19:00,
2013-08-16 06:34:00,53.8,51.0,30.12,WNW,298,0.0,-999.0,91,-99.99,,,0.00,12,weatherlink.com 1.10,2013-08-16 10:34:00,
2013-08-16 06:49:00,54.0,52.0,30.12,WNW,298,0.0,-999.0,91,-99.99,,,0.00,23,weatherlink.com 1.10,2013-08-16 10:49:00,
2013-08-16 07:04:00,54.5,52.0,30.13,WNW,298,0.0,-999.0,92,-99.99,,,0.00,60,weatherlink.com 1.10,2013-08-16 11:04:00,
2013-08-16 07:19:00,55.1,53.0,30.13,WNW,298,0.0,-999.0,92,-99.99,,,0.00,114,weatherlink.com 1.10,2013-08-16 11:19:00,
2013-08-16 07:34:00,56.1,54.0,30.14,WNW,298,0.0,-999.0,92,-99.99,,,0.00,167,weatherlink.com 1.10,2013-08-16 11:34:00,
2013-08-16 07:49:00,57.2,55.0,30.14,West,275,0.0,-999.0,91,-99.99,,,0.00,209,weatherlink.com 1.10,2013-08-16 11:49:00,
2013-08-16 08:04:00,58.3,55.0,30.14,West,273,0.0,-999.0,87,-99.99,,,0.00,244,weatherlink.com 1.10,2013-08-16 12:04:00,
2013-08-16 08:20:00,59.8,55.0,30.14,West,273,0.0,-999.0,85,-99.99,,,0.00,297,weatherlink.com 1.10,2013-08-16 12:20:00,
2013-08-16 08:35:00,62.0,56.0,30.14,West,261,4.0,-999.0,80,-99.99,,,0.00,330,weatherlink.com 1.10,2013-08-16 12:35:00,
2013-08-16 08:50:00,63.6,56.0,30.14,WSW,256,1.0,-999.0,75,-99.99,,,0.00,388,weatherlink.com 1.10,2013-08-16 12:50:00,
2013-08-16 09:05:00,64.6,55.0,30.14,WSW,253,4.0,-999.0,72,-99.99,,,0.00,434,weatherlink.com 1.10,2013-08-16 13:05:00,
2013-08-16 09:20:00,65.4,56.0,30.14,WSW,246,4.0,-999.0,71,-99.99,,,0.00,478,weatherlink.com 1.10,2013-08-16 13:20:00,
2013-08-16 09:35:00,67.1,56.0,30.14,SSW,213,5.0,-999.0,68,-99.99,,,0.00,522,weatherlink.com 1.10,2013-08-16 13:35:00,
2013-08-16 09:50:00,67.7,56.0,30.14,WSW,242,10.0,-999.0,66,-99.99,,,0.00,568,weatherlink.com 1.10,2013-08-16 13:50:00,
2013-08-16 10:05:00,67.9,56.0,30.15,SW,229,5.0,-999.0,67,-99.99,,,0.00,605,weatherlink.com 1.10,2013-08-16 14:05:00,
2013-08-16 10:20:00,69.0,56.0,30.15,WSW,247,0.0,-999.0,64,-99.99,,,0.00,636,weatherlink.com 1.10,2013-08-16 14:20:00,
2013-08-16 10:35:00,69.9,57.0,30.15,West,267,4.0,-999.0,63,-99.99,,,0.00,675,weatherlink.com 1.10,2013-08-16 14:35:00,
2013-08-16 10:50:00,71.6,56.0,30.15,SW,227,6.0,-999.0,58,-99.99,,,0.00,707,weatherlink.com 1.10,2013-08-16 14:50:00,
2013-08-16 11:05:00,71.5,55.0,30.15,NW,318,4.0,-999.0,56,-99.99,,,0.00,737,weatherlink.com 1.10,2013-08-16 15:05:00,
2013-08-16 11:20:00,71.9,53.0,30.15,WSW,238,6.0,-999.0,52,-99.99,,,0.00,791,weatherlink.com 1.10,2013-08-16 15:20:00,
2013-08-16 11:35:00,73.4,55.0,30.16,WSW,257,1.0,-999.0,52,-99.99,,,0.00,856,weatherlink.com 1.10,2013-08-16 15:35:00,
2013-08-16 11:50:00,73.0,53.0,30.15,NNW,346,1.0,-999.0,49,-99.99,,,0.00,1009,weatherlink.com 1.10,2013-08-16 15:50:00,
2013-08-16 12:06:00,72.6,52.0,30.15,WSW,257,3.0,-999.0,49,-99.99,,,0.00,229,weatherlink.com 1.10,2013-08-16 16:06:00,
2013-08-16 12:21:00,74.0,53.0,30.15,WSW,244,0.0,-999.0,48,-99.99,,,0.00,940,weatherlink.com 1.10,2013-08-16 16:21:00,
2013-08-16 12:36:00,75.0,53.0,30.15,WSW,240,7.0,-999.0,46,-99.99,,,0.00,153,weatherlink.com 1.10,2013-08-16 16:36:00,
2013-08-16 12:51:00,75.4,53.0,30.15,West,275,4.0,-999.0,46,-99.99,,,0.00,916,weatherlink.com 1.10,2013-08-16 16:51:00,
2013-08-16 13:06:00,75.3,54.0,30.15,West,260,7.0,-999.0,48,-99.99,,,0.00,946,weatherlink.com 1.10,2013-08-16 17:06:00,
2013-08-16 13:21:00,75.7,53.0,30.15,SSW,211,2.0,-999.0,46,-99.99,,,0.00,877,weatherlink.com 1.10,2013-08-16 17:21:00,
2013-08-16 13:36:00,76.7,54.0,30.14,WNW,289,5.0,-999.0,45,-99.99,,,0.00,250,weatherlink.com 1.10,2013-08-16 17:36:00,
2013-08-16 13:51:00,76.2,54.0,30.14,South,188,5.0,-999.0,46,-99.99,,,0.00,926,weatherlink.com 1.10,2013-08-16 17:51:00,
2013-08-16 14:06:00,77.3,54.0,30.14,WNW,290,8.0,-999.0,44,-99.99,,,0.00,919,weatherlink.com 1.10,2013-08-16 18:06:00,
2013-08-16 14:21:00,76.9,53.0,30.14,WNW,282,4.0,-999.0,44,-99.99,,,0.00,863,weatherlink.com 1.10,2013-08-16 18:21:00,
2013-08-16 14:36:00,76.6,54.0,30.14,WSW,254,6.0,-999.0,45,-99.99,,,0.00,914,weatherlink.com 1.10,2013-08-16 18:36:00,
2013-08-16 14:51:00,77.1,55.0,30.14,SE,143,6.0,-999.0,47,-99.99,,,0.00,830,weatherlink.com 1.10,2013-08-16 18:51:00,
2013-08-16 15:06:00,77.5,53.0,30.14,WNW,300,4.0,-999.0,43,-99.99,,,0.00,826,weatherlink.com 1.10,2013-08-16 19:06:00,
2013-08-16 15:21:00,77.3,54.0,30.14,NNW,348,5.0,-999.0,44,-99.99,,,0.00,770,weatherlink.com 1.10,2013-08-16 19:21:00,
2013-08-16 15:36:00,78.0,54.0,30.14,WSW,254,5.0,-999.0,44,-99.99,,,0.00,754,weatherlink.com 1.10,2013-08-16 19:36:00,
2013-08-16 15:51:00,77.9,54.0,30.14,North,350,1.0,-999.0,44,-99.99,,,0.00,705,weatherlink.com 1.10,2013-08-16 19:51:00,
2013-08-16 16:06:00,79.3,54.0,30.14,NNW,338,0.0,-999.0,42,-99.99,,,0.00,188,weatherlink.com 1.10,2013-08-16 20:06:00,
2013-08-16 16:21:00,78.6,54.0,30.14,WSW,242,2.0,-999.0,43,-99.99,,,0.00,661,weatherlink.com 1.10,2013-08-16 20:21:00,
2013-08-16 16:36:00,78.3,55.0,30.14,WNW,303,1.0,-999.0,44,-99.99,,,0.00,573,weatherlink.com 1.10,2013-08-16 20:36:00,
2013-08-16 16:51:00,77.8,55.0,30.14,NW,321,5.0,-999.0,45,-99.99,,,0.00,522,weatherlink.com 1.10,2013-08-16 20:51:00,
2013-08-16 17:06:00,78.0,55.0,30.14,WNW,300,4.0,-999.0,45,-99.99,,,0.00,485,weatherlink.com 1.10,2013-08-16 21:06:00,
2013-08-16 17:21:00,78.2,56.0,30.14,West,281,1.0,-999.0,47,-99.99,,,0.00,441,weatherlink.com 1.10,2013-08-16 21:21:00,
2013-08-16 17:36:00,77.5,57.0,30.14,NNW,343,4.0,-999.0,50,-99.99,,,0.00,383,weatherlink.com 1.10,2013-08-16 21:36:00,
2013-08-16 17:51:00,75.8,58.0,30.14,ENE,72,4.0,-999.0,54,-99.99,,,0.00,341,weatherlink.com 1.10,2013-08-16 21:51:00,
2013-08-16 18:06:00,75.5,57.0,30.14,North,5,4.0,-999.0,53,-99.99,,,0.00,295,weatherlink.com 1.10,2013-08-16 22:06:00,
2013-08-16 18:21:00,75.2,58.0,30.14,North,5,1.0,-999.0,55,-99.99,,,0.00,253,weatherlink.com 1.10,2013-08-16 22:21:00,
2013-08-16 18:36:00,75.0,57.0,30.14,North,5,2.0,-999.0,54,-99.99,,,0.00,213,weatherlink.com 1.10,2013-08-16 22:36:00,
2013-08-16 18:51:00,74.8,58.0,30.14,North,5,0.0,-999.0,56,-99.99,,,0.00,158,weatherlink.com 1.10,2013-08-16 22:51:00,
2013-08-16 19:06:00,74.2,59.0,30.15,North,5,2.0,-999.0,59,-99.99,,,0.00,109,weatherlink.com 1.10,2013-08-16 23:06:00,
2013-08-16 19:21:00,73.9,59.0,30.15,North,5,0.0,-999.0,61,-99.99,,,0.00,63,weatherlink.com 1.10,2013-08-16 23:21:00,
2013-08-16 19:36:00,72.6,60.0,30.15,North,5,0.0,-999.0,64,-99.99,,,0.00,30,weatherlink.com 1.10,2013-08-16 23:36:00,
2013-08-16 19:51:00,71.0,60.0,30.15,North,5,0.0,-999.0,68,-99.99,,,0.00,14,weatherlink.com 1.10,2013-08-16 23:51:00,
2013-08-16 20:06:00,69.5,60.0,30.16,North,5,0.0,-999.0,72,-99.99,,,0.00,5,weatherlink.com 1.10,2013-08-17 00:06:00,
2013-08-16 20:21:00,68.1,60.0,30.16,North,5,0.0,-999.0,74,-99.99,,,0.00,0,weatherlink.com 1.10,2013-08-17 00:21:00,
2013-08-16 20:36:00,67.0,59.0,30.16,North,5,0.0,-999.0,76,-99.99,,,0.00,0,weatherlink.com 1.10,2013-08-17 00:36:00,
2013-08-16 20:51:00,66.0,59.0,30.16,North,5,0.0,-999.0,79,-99.99,,,0.00,0,weatherlink.com 1.10,2013-08-17 00:51:00,
2013-08-16 21:06:00,64.3,59.0,30.17,North,5,0.0,-999.0,82,-99.99,,,0.00,0,weatherlink.com 1.10,2013-08-17 01:06:00,
2013-08-16 21:21:00,64.0,59.0,30.17,North,5,0.0,-999.0,83,-99.99,,,0.00,0,weatherlink.com 1.10,2013-08-17 01:21:00,
2013-08-16 21:36:00,63.4,58.0,30.17,North,5,0.0,-999.0,83,-99.99,,,0.00,0,weatherlink.com 1.10,2013-08-17 01:36:00,
2013-08-16 21:51:00,62.9,58.0,30.18,North,5,0.0,-999.0,84,-99.99,,,0.00,0,weatherlink.com 1.10,2013-08-17 01:51:00,
2013-08-16 22:06:00,62.5,58.0,30.18,North,5,0.0,-999.0,85,-99.99,,,0.00,0,weatherlink.com 1.10,2013-08-17 02:06:00,
2013-08-16 22:21:00,62.1,58.0,30.18,North,5,0.0,-999.0,85,-99.99,,,0.00,0,weatherlink.com 1.10,2013-08-17 02:21:00,
2013-08-16 22:36:00,61.6,57.0,30.18,North,5,1.0,-999.0,86,-99.99,,,0.00,0,weatherlink.com 1.10,2013-08-17 02:36:00,
2013-08-16 22:51:00,61.0,57.0,30.18,North,5,0.0,-999.0,87,-99.99,,,0.00,0,weatherlink.com 1.10,2013-08-17 02:51:00,
2013-08-16 23:06:00,60.7,57.0,30.18,North,5,0.0,-999.0,88,-99.99,,,0.00,0,weatherlink.com 1.10,2013-08-17 03:06:00,
2013-08-16 23:21:00,60.3,57.0,30.18,North,5,0.0,-999.0,88,-99.99,,,0.00,0,weatherlink.com 1.10,2013-08-17 03:21:00,
2013-08-16 23:36:00,59.8,56.0,30.18,North,5,0.0,-999.0,88,-99.99,,,0.00,0,weatherlink.com 1.10,2013-08-17 03:36:00,
2013-08-16 23:51:00,59.4,56.0,30.19,North,5,0.0,-999.0,89,-99.99,,,0.00,0,weatherlink.com 1.10,2013-08-17 03:51:00,